Time;durP1;ratioP1;P1;durP2;ratioP2;P2;SDS_P1;SDS_P2;PMS_P1;PMS_P2;Temp;Humidity;BMP_temperature;BMP_pressure;BME280_temperature;BME280_humidity;BME280_pressure;Samples;Min_cycle;Max_cycle;Signal;HPM_P1;HPM_P2
2022/05/11 00:01:57;;;;;;;;;33.67;32.00;20.20;53.40;;;;;;5036594;28;8912;-76
2022/05/11 00:04:22;;;;;;;;;36.50;33.75;20.20;53.70;;;;;;5037124;28;8924;-74
2022/05/11 00:06:49;;;;;;;;;36.67;33.67;20.20;53.60;;;;;;5037254;28;8874;-75
2022/05/11 00:09:16;;;;;;;;;36.33;33.67;20.20;53.50;;;;;;5037219;28;8762;-75
2022/05/11 00:11:42;;;;;;;;;33.00;32.67;20.30;53.80;;;;;;5036815;28;8871;-76
2022/05/11 00:14:09;;;;;;;;;37.67;34.33;20.20;53.50;;;;;;5039595;28;8770;-76
2022/05/11 00:16:35;;;;;;;;;28.00;28.00;20.20;53.30;;;;;;5046340;28;8794;-76
2022/05/11 00:19:01;;;;;;;;;32.67;31.33;20.20;53.10;;;;;;5048633;28;8783;-76
2022/05/11 00:21:27;;;;;;;;;31.67;30.67;20.10;53.50;;;;;;5056518;28;9324;-76
2022/05/11 00:23:53;;;;;;;;;37.67;35.67;20.10;53.50;;;;;;5056730;28;8821;-76
2022/05/11 00:26:20;;;;;;;;;33.67;32.33;19.90;53.60;;;;;;5056491;28;8791;-76
2022/05/11 00:28:46;;;;;;;;;33.00;32.00;20.00;53.70;;;;;;5056357;28;8775;-75
2022/05/11 00:31:12;;;;;;;;;27.67;27.67;20.00;53.20;;;;;;5056339;28;9353;-76
2022/05/11 00:33:38;;;;;;;;;36.00;33.00;20.10;53.10;;;;;;5041116;28;8837;-75
2022/05/11 00:36:10;;;;;;;;;34.33;32.67;20.10;52.70;;;;;;5036583;28;8789;-75
2022/05/11 00:38:35;;;;;;;;;37.00;34.00;19.80;53.50;;;;;;5036535;28;9431;-75
2022/05/11 00:41:01;;;;;;;;;35.00;32.67;19.60;54.00;;;;;;5036222;28;8820;-76
2022/05/11 00:43:30;;;;;;;;;33.00;32.00;19.50;54.60;;;;;;5036191;28;8797;-76
2022/05/11 00:46:04;;;;;;;;;34.00;32.33;19.60;53.80;;;;;;5036080;28;8805;-76
2022/05/11 00:51:15;;;;;;;;;34.67;32.67;19.80;53.30;;;;;;5024913;28;9586;-76
2022/05/11 00:53:46;;;;;;;;;28.00;28.00;19.70;53.10;;;;;;5036235;28;8868;-76
2022/05/11 00:56:13;;;;;;;;;31.33;30.33;19.60;53.40;;;;;;5036111;28;8887;-76
2022/05/11 00:58:52;;;;;;;;;33.00;32.00;19.70;53.30;;;;;;5036185;28;8777;-76
2022/05/11 01:01:19;;;;;;;;;32.00;31.00;19.70;53.30;;;;;;5036194;28;8868;-76
2022/05/11 01:04:06;;;;;;;;;32.33;31.33;19.70;53.30;;;;;;5035899;28;8867;-76
2022/05/11 01:06:33;;;;;;;;;34.33;32.33;19.80;53.10;;;;;;5035499;28;8828;-76
2022/05/11 01:09:01;;;;;;;;;31.33;30.33;19.70;53.10;;;;;;5035910;28;8803;-76
2022/05/11 01:11:28;;;;;;;;;35.33;33.67;19.60;53.40;;;;;;5035795;28;8774;-76
2022/05/11 01:13:55;;;;;;;;;32.00;31.00;19.70;53.20;;;;;;5035836;28;8785;-75
2022/05/11 01:16:21;;;;;;;;;28.67;28.67;19.70;52.90;;;;;;5035973;28;8782;-75
2022/05/11 01:18:48;;;;;;;;;34.67;33.00;19.70;52.90;;;;;;5035513;28;8773;-75
2022/05/11 01:21:14;;;;;;;;;30.33;30.33;19.70;52.80;;;;;;5035492;28;8785;-75
2022/05/11 01:23:47;;;;;;;;;34.33;32.67;19.80;52.80;;;;;;5035748;28;8773;-75
2022/05/11 01:26:16;;;;;;;;;34.67;33.00;19.70;53.50;;;;;;5035353;28;8822;-76
2022/05/11 01:28:47;;;;;;;;;34.67;33.33;19.80;53.30;;;;;;5032062;28;8789;-75
2022/05/11 01:31:15;;;;;;;;;32.67;31.33;19.70;53.30;;;;;;5035243;28;8808;-74
2022/05/11 01:33:45;;;;;;;;;37.00;34.00;19.80;53.10;;;;;;5034685;28;8857;-74
2022/05/11 01:36:11;;;;;;;;;32.00;30.67;19.70;53.10;;;;;;5035459;28;8874;-74
2022/05/11 01:38:43;;;;;;;;;36.00;33.33;19.80;53.10;;;;;;5035168;28;8903;-74
2022/05/11 01:41:18;;;;;;;;;36.75;34.25;19.90;53.10;;;;;;5035176;28;8762;-74
2022/05/11 01:43:44;;;;;;;;;43.00;39.00;19.70;53.20;;;;;;5035420;28;8776;-74
2022/05/11 01:46:10;;;;;;;;;41.50;36.75;19.70;53.20;;;;;;5035024;28;9415;-75
2022/05/11 01:48:36;;;;;;;;;40.75;36.25;19.70;53.20;;;;;;5034929;28;8766;-76
2022/05/11 01:51:03;;;;;;;;;39.25;35.25;19.80;53.00;;;;;;5035274;28;8781;-75
2022/05/11 01:53:29;;;;;;;;;38.50;35.50;19.80;53.20;;;;;;5034941;28;8801;-75
2022/05/11 01:55:55;;;;;;;;;28.75;28.75;19.70;53.20;;;;;;5034878;28;8801;-75
2022/05/11 01:58:22;;;;;;;;;38.75;35.00;19.70;53.40;;;;;;5034855;28;8785;-75
2022/05/11 02:00:48;;;;;;;;;35.00;32.25;19.70;53.50;;;;;;5035043;28;8773;-75
2022/05/11 02:03:17;;;;;;;;;35.25;33.25;19.70;53.30;;;;;;5034832;28;9493;-75
2022/05/11 02:08:28;;;;;;;;;39.00;35.25;19.70;53.60;;;;;;5034758;28;8753;-75
2022/05/11 02:10:55;;;;;;;;;40.75;36.00;19.60;54.30;;;;;;5034859;28;8780;-75
2022/05/11 02:13:21;;;;;;;;;34.67;32.00;19.50;53.30;;;;;;5034674;28;8868;-75
2022/05/11 02:15:48;;;;;;;;;35.50;33.00;19.40;53.50;;;;;;5033597;28;8778;-75
2022/05/11 02:18:14;;;;;;;;;33.50;31.50;19.40;53.50;;;;;;5016749;28;8781;-74
2022/05/11 02:20:40;;;;;;;;;38.00;34.75;19.50;53.40;;;;;;5034546;28;8839;-74
2022/05/11 02:23:05;;;;;;;;;34.25;32.25;19.40;53.50;;;;;;5034794;28;8792;-75
2022/05/11 02:25:31;;;;;;;;;37.75;34.75;19.50;54.00;;;;;;5034366;28;8801;-75
2022/05/11 02:27:57;;;;;;;;;40.75;36.00;19.50;53.70;;;;;;5034443;28;8758;-75
2022/05/11 02:30:26;;;;;;;;;35.25;33.00;19.40;53.60;;;;;;5034417;28;8824;-75
2022/05/11 02:32:52;;;;;;;;;35.00;33.00;19.50;53.50;;;;;;5034071;28;8828;-75
2022/05/11 02:35:20;;;;;;;;;33.67;32.00;19.40;53.50;;;;;;5034347;28;8785;-75
2022/05/11 02:37:59;;;;;;;;;35.75;33.00;19.40;53.50;;;;;;5034661;28;8784;-75
2022/05/11 02:40:28;;;;;;;;;37.50;34.50;19.40;53.80;;;;;;5034326;28;8785;-75
2022/05/11 02:42:54;;;;;;;;;39.25;35.00;19.50;54.00;;;;;;5033193;28;8777;-75
2022/05/11 02:45:22;;;;;;;;;36.25;34.00;19.30;54.50;;;;;;5034594;28;8821;-75
2022/05/11 02:47:50;;;;;;;;;36.75;33.50;19.40;54.70;;;;;;5034229;28;8899;-75
2022/05/11 02:50:28;;;;;;;;;31.00;30.50;19.40;54.50;;;;;;5034321;28;8831;-75
2022/05/11 02:52:54;;;;;;;;;31.00;30.00;19.40;54.00;;;;;;5034393;28;8866;-76
2022/05/11 02:55:20;;;;;;;;;39.50;36.00;19.30;54.30;;;;;;5034416;28;8762;-76
2022/05/11 02:57:46;;;;;;;;;42.50;37.50;19.30;54.60;;;;;;5033080;28;8769;-77
2022/05/11 03:00:15;;;;;;;;;39.75;35.75;19.10;55.50;;;;;;5033159;28;8777;-76
2022/05/11 03:02:41;;;;;;;;;36.25;33.25;19.00;56.60;;;;;;5034117;28;8826;-76
2022/05/11 03:05:08;;;;;;;;;44.25;39.00;19.10;56.10;;;;;;5034418;28;8801;-76
2022/05/11 03:07:33;;;;;;;;;40.50;36.50;19.30;55.60;;;;;;5034113;28;8770;-76
2022/05/11 03:09:59;;;;;;;;;42.50;38.00;19.40;54.70;;;;;;5034435;28;8770;-76
2022/05/11 03:12:25;;;;;;;;;29.75;28.50;19.20;55.20;;;;;;5034182;28;8793;-76
2022/05/11 03:14:54;;;;;;;;;46.00;39.25;19.10;56.00;;;;;;5034002;28;8802;-75
2022/05/11 03:17:21;;;;;;;;;40.50;36.00;19.10;56.30;;;;;;5033995;28;8777;-76
2022/05/11 03:19:46;;;;;;;;;43.50;38.50;19.20;55.60;;;;;;5040166;28;9424;-75
2022/05/11 03:22:12;;;;;;;;;43.00;37.75;19.30;55.60;;;;;;5038110;28;8770;-75
2022/05/11 03:24:38;;;;;;;;;40.75;36.00;19.30;55.90;;;;;;5033862;28;8800;-75
2022/05/11 03:27:05;;;;;;;;;42.75;37.75;19.20;55.90;;;;;;5033878;28;8774;-75
2022/05/11 03:29:31;;;;;;;;;44.75;38.75;19.20;55.20;;;;;;5036015;28;8778;-75
2022/05/11 03:34:41;;;;;;;;;41.75;37.00;19.30;54.30;;;;;;5036635;28;8971;-76
2022/05/11 03:37:16;;;;;;;;;42.25;37.25;19.30;54.50;;;;;;5037491;28;8766;-76
2022/05/11 03:39:42;;;;;;;;;40.00;36.00;19.30;54.50;;;;;;5043544;28;8779;-75
2022/05/11 03:42:12;;;;;;;;;43.00;38.00;19.30;54.50;;;;;;5048611;28;9416;-75
2022/05/11 03:44:37;;;;;;;;;45.00;39.00;19.30;54.40;;;;;;5034337;28;8831;-76
2022/05/11 03:47:04;;;;;;;;;43.50;38.00;19.30;54.50;;;;;;5024885;28;8770;-76
2022/05/11 03:49:29;;;;;;;;;44.25;38.25;19.30;54.80;;;;;;5019258;28;8808;-75
2022/05/11 03:51:55;;;;;;;;;46.00;39.75;19.40;54.90;;;;;;5032895;28;8808;-75
2022/05/11 03:54:21;;;;;;;;;44.75;38.50;19.40;54.60;;;;;;5017589;28;8814;-75
2022/05/11 03:56:47;;;;;;;;;45.75;39.25;19.30;54.90;;;;;;5017547;28;8800;-75
2022/05/11 03:59:13;;;;;;;;;45.25;39.50;19.40;54.90;;;;;;5017315;28;8898;-74
2022/05/11 04:01:39;;;;;;;;;53.00;45.00;19.30;55.00;;;;;;5017328;28;8863;-75
2022/05/11 04:04:04;;;;;;;;;52.25;45.00;19.30;54.90;;;;;;5035981;28;8802;-75
2022/05/11 04:06:30;;;;;;;;;49.25;42.00;19.20;55.30;;;;;;5037040;28;8833;-74
2022/05/11 04:08:57;;;;;;;;;43.50;38.00;19.20;56.00;;;;;;5036829;28;8751;-74
2022/05/11 04:11:23;;;;;;;;;45.75;39.50;19.30;55.70;;;;;;5036689;28;8845;-75
2022/05/11 04:13:49;;;;;;;;;46.50;40.25;19.40;55.40;;;;;;5036835;28;8774;-75
2022/05/11 04:16:17;;;;;;;;;44.75;38.75;19.40;55.30;;;;;;5036787;28;8785;-74
2022/05/11 04:18:43;;;;;;;;;44.50;39.00;19.30;55.10;;;;;;5036762;28;8766;-74
2022/05/11 04:21:10;;;;;;;;;45.00;39.00;19.40;55.10;;;;;;5035163;28;8797;-76
2022/05/11 04:23:36;;;;;;;;;41.00;36.00;19.50;55.10;;;;;;5034472;28;8786;-75
2022/05/11 04:26:02;;;;;;;;;40.50;35.50;19.50;54.90;;;;;;5044440;28;8830;-74
2022/05/11 04:28:30;;;;;;;;;38.75;35.50;19.50;54.60;;;;;;5047465;28;9489;-75
2022/05/11 04:31:07;;;;;;;;;45.00;39.00;19.70;54.50;;;;;;5056316;28;8785;-75
2022/05/11 04:33:34;;;;;;;;;38.75;35.75;19.60;54.50;;;;;;5041375;28;8845;-75
2022/05/11 04:36:01;;;;;;;;;42.25;37.50;19.80;54.50;;;;;;5036342;28;8797;-74
2022/05/11 04:38:27;;;;;;;;;30.75;30.00;19.80;54.60;;;;;;5034240;28;9001;-75
2022/05/11 04:40:53;;;;;;;;;39.50;36.00;19.80;54.30;;;;;;5026223;28;8819;-74
2022/05/11 04:43:20;;;;;;;;;35.33;33.00;19.80;54.00;;;;;;5019959;28;8768;-74
2022/05/11 04:45:46;;;;;;;;;40.75;36.25;19.90;53.90;;;;;;5016198;28;8832;-74
2022/05/11 04:48:14;;;;;;;;;43.75;39.00;19.90;53.90;;;;;;5016116;28;8854;-75
2022/05/11 04:50:42;;;;;;;;;41.00;36.50;20.00;53.70;;;;;;5016175;28;8768;-75
2022/05/11 04:53:08;;;;;;;;;39.25;35.00;20.00;53.20;;;;;;5016228;28;8776;-74
2022/05/11 04:55:34;;;;;;;;;38.75;35.00;20.10;53.40;;;;;;5016206;28;8797;-74
2022/05/11 04:58:00;;;;;;;;;42.25;38.75;20.00;53.80;;;;;;5016427;28;9394;-74
2022/05/11 05:00:26;;;;;;;;;39.50;36.00;20.00;54.60;;;;;;5016132;28;8768;-75
2022/05/11 05:02:52;;;;;;;;;46.50;40.75;20.00;53.60;;;;;;5024686;28;8834;-75
2022/05/11 05:05:19;;;;;;;;;44.00;38.25;20.00;53.80;;;;;;5034964;28;8809;-74
2022/05/11 05:07:45;;;;;;;;;39.50;35.50;20.00;53.90;;;;;;5028317;28;9449;-75
2022/05/11 05:10:14;;;;;;;;;49.00;42.00;20.00;53.90;;;;;;5027747;28;8812;-74
2022/05/11 05:12:43;;;;;;;;;44.75;38.75;20.00;53.90;;;;;;5016158;28;8777;-74
2022/05/11 05:15:13;;;;;;;;;43.75;38.25;20.00;53.90;;;;;;5016109;28;8753;-75
2022/05/11 05:17:39;;;;;;;;;44.75;38.75;20.00;53.90;;;;;;5015765;28;9449;-75
2022/05/11 05:20:07;;;;;;;;;43.50;37.75;20.00;54.30;;;;;;5015617;28;8788;-74
2022/05/11 05:22:34;;;;;;;;;39.00;35.25;20.00;54.10;;;;;;5015654;28;8819;-76
2022/05/11 05:25:00;;;;;;;;;45.00;39.00;20.20;53.70;;;;;;5015800;28;8815;-76
2022/05/11 05:27:26;;;;;;;;;45.25;39.25;20.20;53.90;;;;;;5015586;28;8772;-76
2022/05/11 05:32:38;;;;;;;;;42.00;37.25;20.20;54.30;;;;;;5021868;28;8805;-76
2022/05/11 05:35:10;;;;;;;;;47.50;40.75;20.20;54.40;;;;;;5035233;28;8797;-76
2022/05/11 05:37:38;;;;;;;;;41.00;36.25;20.30;54.30;;;;;;5035533;28;8792;-76
2022/05/11 05:40:05;;;;;;;;;46.00;40.00;20.20;54.50;;;;;;5035183;28;8762;-76
2022/05/11 05:42:31;;;;;;;;;48.50;42.00;20.30;54.70;;;;;;5034893;28;8778;-76
2022/05/11 05:44:57;;;;;;;;;45.00;39.00;20.30;54.70;;;;;;5035026;28;8817;-76
2022/05/11 05:47:22;;;;;;;;;41.75;37.25;20.40;54.60;;;;;;5034986;28;8754;-76
2022/05/11 05:49:49;;;;;;;;;47.75;41.75;20.40;54.40;;;;;;5035107;28;8777;-76
2022/05/11 05:52:18;;;;;;;;;45.00;39.00;20.40;54.60;;;;;;5034290;28;8820;-76
2022/05/11 05:54:45;;;;;;;;;47.00;39.75;20.40;54.80;;;;;;5035080;28;8754;-76
2022/05/11 05:57:12;;;;;;;;;48.25;41.75;20.40;55.10;;;;;;5034779;28;8850;-76
2022/05/11 05:59:38;;;;;;;;;46.75;39.50;20.50;55.40;;;;;;5035024;28;9532;-76
2022/05/11 06:02:06;;;;;;;;;48.75;42.25;20.50;55.70;;;;;;5034224;28;8789;-77
2022/05/11 06:04:32;;;;;;;;;45.25;40.00;20.60;55.60;;;;;;5035029;28;8821;-76
2022/05/11 06:06:57;;;;;;;;;47.00;41.25;20.70;55.30;;;;;;5034679;28;8855;-76
2022/05/11 06:09:23;;;;;;;;;45.33;39.67;20.80;54.80;;;;;;5034478;28;9550;-76
2022/05/11 06:11:49;;;;;;;;;48.75;42.25;20.90;54.60;;;;;;5035053;28;8773;-76
2022/05/11 06:14:14;;;;;;;;;37.25;34.25;20.90;55.00;;;;;;5034904;28;8781;-74
2022/05/11 06:16:40;;;;;;;;;39.75;35.75;21.00;54.80;;;;;;5034816;28;8786;-76
2022/05/11 06:19:06;;;;;;;;;45.75;40.25;21.00;54.80;;;;;;5034820;28;8777;-76
2022/05/11 06:21:34;;;;;;;;;48.00;41.25;21.10;55.10;;;;;;5034437;28;8870;-76
2022/05/11 06:23:59;;;;;;;;;48.75;42.25;21.00;55.30;;;;;;5034576;28;8892;-76
2022/05/11 06:26:25;;;;;;;;;46.00;39.50;21.10;55.00;;;;;;5034472;28;9622;-75
2022/05/11 06:28:51;;;;;;;;;43.75;38.75;21.10;55.10;;;;;;5034349;28;8855;-76
2022/05/11 06:31:17;;;;;;;;;44.50;39.50;21.10;55.40;;;;;;5034355;28;8884;-76
2022/05/11 06:33:49;;;;;;;;;43.25;38.00;21.10;54.80;;;;;;5034046;28;8899;-76
2022/05/11 06:36:15;;;;;;;;;45.50;39.25;21.00;55.30;;;;;;5034361;28;8786;-76
2022/05/11 06:38:41;;;;;;;;;41.25;36.25;21.00;55.70;;;;;;5034257;28;8790;-76
2022/05/11 06:41:19;;;;;;;;;46.75;40.00;21.10;55.80;;;;;;5034326;28;8781;-76
2022/05/11 06:43:45;;;;;;;;;45.75;39.00;21.00;56.60;;;;;;5034191;28;8773;-76
2022/05/11 06:46:12;;;;;;;;;41.25;36.50;21.20;56.20;;;;;;5034123;28;8837;-74
2022/05/11 06:48:38;;;;;;;;;41.67;36.67;21.20;56.20;;;;;;5034473;28;8762;-76
2022/05/11 06:51:04;;;;;;;;;40.33;37.33;21.50;55.20;;;;;;5034184;28;8794;-74
2022/05/11 06:59:16;;;;;;;;;38.67;35.33;21.60;54.50;;;;;;5034184;28;8781;-76
2022/05/11 07:01:43;;;;;;;;;46.33;40.67;21.60;54.00;;;;;;5033818;28;8753;-76
2022/05/11 07:04:09;;;;;;;;;38.67;35.67;21.70;53.30;;;;;;5035800;28;8844;-76
2022/05/11 07:06:35;;;;;;;;;40.33;36.67;21.80;53.60;;;;;;5038229;28;8817;-76
2022/05/11 07:09:00;;;;;;;;;42.67;37.33;21.90;53.60;;;;;;5038125;28;8809;-76
2022/05/11 07:14:11;;;;;;;;;37.67;34.33;22.20;53.20;;;;;;5038021;28;8781;-76
2022/05/11 07:16:37;;;;;;;;;44.00;38.33;22.20;53.40;;;;;;5037758;28;8785;-76
2022/05/11 07:19:04;;;;;;;;;41.33;36.33;22.20;53.90;;;;;;5037976;28;8774;-75
2022/05/11 07:21:30;;;;;;;;;45.33;39.33;22.20;53.60;;;;;;5037593;28;8820;-76
2022/05/11 07:23:55;;;;;;;;;44.33;39.33;22.30;53.00;;;;;;5037390;28;8781;-76
2022/05/11 07:26:21;;;;;;;;;43.67;38.00;22.40;53.10;;;;;;5036461;28;8826;-75
2022/05/11 07:28:47;;;;;;;;;40.00;36.67;22.50;52.40;;;;;;5037777;28;8777;-74
2022/05/11 07:31:13;;;;;;;;;44.33;38.33;22.60;52.20;;;;;;5037482;28;8903;-75
2022/05/11 07:33:39;;;;;;;;;47.75;41.50;22.60;52.50;;;;;;5036052;28;8885;-74
2022/05/11 07:36:05;;;;;;;;;46.00;40.25;22.70;52.60;;;;;;5037585;28;8781;-74
2022/05/11 07:38:32;;;;;;;;;37.00;34.67;22.70;52.30;;;;;;5037643;28;9617;-75
2022/05/11 07:40:57;;;;;;;;;42.00;38.33;22.60;52.30;;;;;;5037579;28;8777;-75
2022/05/11 07:43:23;;;;;;;;;42.00;38.00;22.70;52.00;;;;;;5037349;28;8864;-75
2022/05/11 07:45:49;;;;;;;;;40.67;36.67;22.80;51.70;;;;;;5037196;28;8817;-75
2022/05/11 07:48:19;;;;;;;;;43.33;37.67;22.80;52.20;;;;;;5037327;28;8761;-76
2022/05/11 07:50:44;;;;;;;;;41.33;36.67;22.70;53.10;;;;;;5037497;28;8777;-76
2022/05/11 07:53:10;;;;;;;;;36.67;34.33;22.80;53.20;;;;;;5037326;28;8774;-76
2022/05/11 07:55:36;;;;;;;;;44.00;39.67;22.90;53.20;;;;;;5037154;28;8792;-75
2022/05/11 08:00:47;;;;;;;;;40.67;37.00;23.10;53.20;;;;;;5036923;28;8737;-76
2022/05/11 08:03:13;;;;;;;;;41.67;38.00;23.20;53.60;;;;;;5036529;28;8911;-78
2022/05/11 08:05:39;;;;;;;;;38.33;35.33;23.40;52.80;;;;;;5036374;28;8818;-77
2022/05/11 08:08:07;;;;;;;;;39.00;35.67;23.30;53.00;;;;;;5037031;28;8785;-77
2022/05/11 08:10:42;;;;;;;;;37.00;34.67;23.30;52.90;;;;;;5036914;28;8794;-75
2022/05/11 08:13:09;;;;;;;;;34.67;32.67;23.30;52.90;;;;;;5031818;28;9496;-74
2022/05/11 08:15:39;;;;;;;;;36.00;34.33;22.80;53.20;;;;;;5021707;28;8788;-77
2022/05/11 08:18:06;;;;;;;;;36.67;35.33;22.80;53.80;;;;;;5032884;28;9500;-75
2022/05/11 08:20:38;;;;;;;;;40.33;36.00;23.10;53.70;;;;;;5016756;28;8787;-75
2022/05/11 08:23:05;;;;;;;;;37.00;34.67;23.30;52.40;;;;;;5030206;28;8805;-74
2022/05/11 08:25:33;;;;;;;;;31.00;31.00;23.40;51.80;;;;;;5036337;28;8821;-75
2022/05/11 08:27:59;;;;;;;;;36.00;34.00;23.60;50.80;;;;;;5036477;28;9376;-73
2022/05/11 08:33:19;;;;;;;;;29.33;29.33;23.80;50.20;;;;;;5030711;28;9474;-76
2022/05/11 08:35:47;;;;;;;;;33.33;33.33;23.90;50.90;;;;;;5016442;28;8791;-73
2022/05/11 08:38:13;;;;;;;;;35.67;33.67;24.10;50.70;;;;;;5016720;28;8790;-74
2022/05/11 08:40:38;;;;;;;;;31.00;31.00;24.20;49.70;;;;;;5031887;28;8765;-76
2022/05/11 08:43:10;;;;;;;;;29.00;29.00;24.20;48.70;;;;;;5018726;28;8824;-74
2022/05/11 08:45:54;;;;;;;;;30.00;30.00;24.10;48.10;;;;;;5016386;28;8800;-74
2022/05/11 08:48:47;;;;;;;;;27.00;26.33;23.90;47.50;;;;;;5016217;28;8900;-74
2022/05/11 08:51:40;;;;;;;;;31.33;31.33;23.90;48.20;;;;;;5039614;28;8779;-75
2022/05/11 08:54:13;;;;;;;;;33.33;32.33;24.00;48.80;;;;;;5036018;28;8781;-76
2022/05/11 08:56:40;;;;;;;;;38.33;33.33;24.10;49.30;;;;;;5036165;28;8769;-75
2022/05/11 08:59:08;;;;;;;;;22.00;22.00;24.10;48.70;;;;;;5036121;28;8859;-75
2022/05/11 09:01:45;;;;;;;;;33.67;31.00;24.20;48.50;;;;;;5035869;28;8774;-79
2022/05/11 09:04:16;;;;;;;;;27.33;27.33;24.30;48.60;;;;;;5035031;28;8910;-77
2022/05/11 09:06:44;;;;;;;;;29.67;29.67;24.50;47.90;;;;;;5028300;28;8824;-76
2022/05/11 09:09:10;;;;;;;;;26.67;26.67;24.90;47.60;;;;;;5031957;28;8789;-74
2022/05/11 09:11:50;;;;;;;;;20.33;20.33;25.10;44.60;;;;;;5031703;28;8792;-74
2022/05/11 09:14:24;;;;;;;;;21.33;21.33;25.10;42.80;;;;;;5025693;28;8800;-78
2022/05/11 09:16:51;;;;;;;;;20.00;20.00;25.00;42.50;;;;;;5033161;28;8778;-76
2022/05/11 09:19:28;;;;;;;;;19.00;19.00;25.30;43.80;;;;;;5032793;28;9408;-75
2022/05/11 09:21:55;;;;;;;;;23.67;22.67;25.50;42.70;;;;;;5032193;28;8809;-75
2022/05/11 09:24:28;;;;;;;;;18.33;18.33;25.50;42.60;;;;;;5032742;28;8859;-73
2022/05/11 09:27:21;;;;;;;;;19.67;19.67;25.80;42.30;;;;;;5031668;28;8813;-76
2022/05/11 09:30:14;;;;;;;;;21.00;21.00;26.10;41.40;;;;;;5029450;28;8769;-74
2022/05/11 09:32:44;;;;;;;;;19.67;19.67;26.00;43.00;;;;;;5031972;28;8953;-73
2022/05/11 09:35:39;;;;;;;;;20.67;20.67;26.40;41.70;;;;;;5030039;28;8815;-73
2022/05/11 09:38:10;;;;;;;;;17.00;17.00;26.20;41.10;;;;;;5012129;28;8793;-73
2022/05/11 09:40:54;;;;;;;;;22.00;22.00;26.50;40.80;;;;;;5029034;28;8789;-74
2022/05/11 09:43:39;;;;;;;;;16.67;16.67;26.70;38.20;;;;;;5029530;28;8754;-73
2022/05/11 09:46:22;;;;;;;;;21.67;21.67;26.80;38.60;;;;;;5031357;28;8805;-74
2022/05/11 09:49:24;;;;;;;;;17.67;17.67;26.80;37.30;;;;;;5015971;28;8803;-75
2022/05/11 09:51:50;;;;;;;;;19.00;19.00;27.10;38.10;;;;;;5015550;28;8760;-73
2022/05/11 09:54:33;;;;;;;;;16.33;16.33;27.10;37.10;;;;;;5015333;28;8768;-73
2022/05/11 09:57:03;;;;;;;;;17.33;17.33;27.10;38.40;;;;;;5015282;28;8797;-73
2022/05/11 09:59:30;;;;;;;;;15.67;15.67;27.10;35.50;;;;;;5015074;28;8931;-75
2022/05/11 10:02:25;;;;;;;;;19.00;19.00;27.50;36.40;;;;;;5016213;28;8783;-75
2022/05/11 10:05:19;;;;;;;;;18.33;18.33;27.70;34.60;;;;;;5034501;28;8812;-75
2022/05/11 10:07:45;;;;;;;;;16.00;16.00;28.00;35.80;;;;;;5029338;28;9612;-73
2022/05/11 10:10:17;;;;;;;;;16.00;16.00;28.10;33.80;;;;;;5039228;28;11612;-72
2022/05/11 10:12:46;;;;;;;;;14.00;14.00;28.30;34.60;;;;;;5023020;28;8776;-72
2022/05/11 10:24:16;;;;;;;;;18.33;18.33;29.30;35.40;;;;;;5012579;28;11519;-75
2022/05/11 10:27:13;;;;;;;;;15.67;15.67;29.60;35.50;;;;;;5015002;28;11565;-75
2022/05/11 10:29:52;;;;;;;;;16.67;16.67;29.30;33.40;;;;;;5024840;28;11503;-72
2022/05/11 10:32:25;;;;;;;;;15.67;15.67;29.50;33.80;;;;;;5028305;28;11965;-71
2022/05/11 10:35:30;;;;;;;;;16.00;16.00;29.60;32.10;;;;;;5029671;28;12410;-72
2022/05/11 10:38:15;;;;;;;;;12.00;12.00;30.00;31.80;;;;;;5017614;28;11524;-73
2022/05/11 10:40:44;;;;;;;;;13.00;13.00;29.90;29.20;;;;;;5025059;28;12194;-72
2022/05/11 10:43:42;;;;;;;;;16.67;16.67;30.00;29.60;;;;;;5021166;28;11531;-72
2022/05/11 10:46:22;;;;;;;;;13.67;13.67;30.00;30.20;;;;;;5044217;28;11534;-74
2022/05/11 10:48:48;;;;;;;;;11.67;11.67;30.40;30.20;;;;;;5024243;28;11519;-74
2022/05/11 10:51:38;;;;;;;;;14.00;14.00;30.70;30.20;;;;;;5022609;28;11515;-74
2022/05/11 10:54:26;;;;;;;;;13.00;13.00;31.00;29.90;;;;;;5020853;28;8752;-74
2022/05/11 10:57:00;;;;;;;;;11.67;11.67;30.90;27.60;;;;;;5036132;28;11589;-76
2022/05/11 10:59:54;;;;;;;;;11.75;11.75;31.00;28.30;;;;;;5023575;28;8903;-75
2022/05/11 11:02:44;;;;;;;;;19.00;19.00;31.20;27.40;;;;;;5028262;28;11471;-74
2022/05/11 11:05:25;;;;;;;;;13.75;13.75;31.50;27.70;;;;;;5033322;28;11548;-74
2022/05/11 11:07:54;;;;;;;;;13.75;13.75;31.90;27.10;;;;;;5033987;28;11509;-75
2022/05/11 11:10:34;;;;;;;;;18.00;18.00;32.20;27.20;;;;;;5028207;28;11501;-75
2022/05/11 11:13:22;;;;;;;;;14.00;14.00;31.90;25.70;;;;;;5022074;28;11533;-74
2022/05/11 11:15:50;;;;;;;;;11.00;11.00;32.00;27.10;;;;;;5022525;28;11531;-74
2022/05/11 11:18:39;;;;;;;;;10.00;10.00;31.70;26.20;;;;;;5013834;28;11504;-74
2022/05/11 11:21:08;;;;;;;;;6.50;6.50;32.10;25.90;;;;;;5022826;28;11515;-75
2022/05/11 11:23:43;;;;;;;;;11.75;11.75;31.80;25.60;;;;;;5013597;28;11479;-77
2022/05/11 11:26:12;;;;;;;;;11.00;11.00;32.50;25.70;;;;;;5017081;28;11563;-76
2022/05/11 11:28:40;;;;;;;;;9.25;9.25;33.20;24.20;;;;;;5024895;28;11512;-77
2022/05/11 11:31:14;;;;;;;;;11.00;11.00;36.10;23.90;;;;;;5025392;28;11506;-76
2022/05/11 11:34:02;;;;;;;;;9.75;9.75;43.90;21.90;;;;;;5028495;28;11596;-77
2022/05/11 11:36:34;;;;;;;;;11.00;11.00;49.80;17.60;;;;;;5033347;28;11458;-77
2022/05/11 11:39:06;;;;;;;;;9.00;9.00;54.30;15.40;;;;;;5032170;28;11532;-75
2022/05/11 11:41:43;;;;;;;;;11.00;11.00;57.00;13.40;;;;;;5018977;28;11538;-74
2022/05/11 11:44:36;;;;;;;;;10.50;10.50;59.70;13.20;;;;;;5013860;28;11513;-74
2022/05/11 11:47:26;;;;;;;;;10.00;10.00;61.90;12.30;;;;;;5017484;28;11553;-76
2022/05/11 11:49:53;;;;;;;;;8.75;8.75;62.70;11.60;;;;;;5020820;28;11521;-77
2022/05/11 11:52:38;;;;;;;;;10.25;10.25;64.00;11.50;;;;;;5017102;28;11448;-75
2022/05/11 11:55:22;;;;;;;;;9.50;9.50;64.20;10.80;;;;;;5028269;28;11536;-75
2022/05/11 11:57:55;;;;;;;;;6.75;6.75;64.00;10.40;;;;;;5017657;28;11476;-76
2022/05/11 12:00:21;;;;;;;;;10.00;10.00;63.30;10.30;;;;;;5019187;28;11558;-77
2022/05/11 12:02:47;;;;;;;;;10.00;10.00;64.30;10.60;;;;;;5029794;28;11530;-75
2022/05/11 12:05:29;;;;;;;;;9.25;9.25;63.30;9.80;;;;;;5029593;28;8816;-76
2022/05/11 12:16:54;;;;;;;;;10.00;10.00;54.30;11.30;;;;;;5032110;28;11480;-74
2022/05/11 12:19:23;;;;;;;;;9.00;9.00;51.00;12.20;;;;;;5036802;28;11527;-76
2022/05/11 12:21:59;;;;;;;;;8.50;8.50;46.90;12.80;;;;;;5055272;28;11568;-76
2022/05/11 12:24:32;;;;;;;;;9.00;9.00;44.10;15.00;;;;;;5056440;28;11433;-75
2022/05/11 12:27:03;;;;;;;;;9.50;9.50;42.20;16.50;;;;;;5039914;28;11618;-74
2022/05/11 12:32:23;;;;;;;;;7.25;7.25;39.60;17.00;;;;;;5018488;28;12123;-76
2022/05/11 12:34:48;;;;;;;;;9.00;9.00;38.10;18.80;;;;;;5015239;28;11473;-75
2022/05/11 12:37:41;;;;;;;;;9.25;9.25;37.80;19.00;;;;;;5018762;28;11476;-77
2022/05/11 12:40:20;;;;;;;;;7.25;7.25;37.00;20.20;;;;;;5027531;28;8982;-76
2022/05/11 12:42:48;;;;;;;;;9.75;9.75;36.80;20.30;;;;;;5036372;28;11456;-76
2022/05/11 12:45:33;;;;;;;;;9.00;9.00;36.70;19.90;;;;;;5020789;28;11693;-76
2022/05/11 12:47:59;;;;;;;;;12.00;12.00;36.40;19.80;;;;;;5016347;28;11444;-77
2022/05/11 12:50:29;;;;;;;;;5.00;5.00;36.20;20.70;;;;;;5020998;28;11527;-76
2022/05/11 12:53:22;;;;;;;;;11.00;11.00;36.20;20.60;;;;;;5034568;28;11466;-77
2022/05/11 12:55:54;;;;;;;;;12.00;12.00;35.90;20.30;;;;;;5023216;28;11681;-73
2022/05/11 12:58:27;;;;;;;;;9.50;9.50;35.50;20.90;;;;;;5015040;28;11505;-73
2022/05/11 13:00:58;;;;;;;;;9.00;9.00;35.40;20.60;;;;;;5027000;28;11486;-71
2022/05/11 13:03:46;;;;;;;;;10.50;10.50;35.30;20.90;;;;;;5028900;28;11598;-72
2022/05/11 13:06:15;;;;;;;;;9.75;9.75;34.90;21.60;;;;;;5016615;28;11561;-72
2022/05/11 13:08:45;;;;;;;;;9.00;9.00;35.40;21.80;;;;;;5016644;28;12435;-72
2022/05/11 13:11:17;;;;;;;;;11.00;11.00;35.50;21.30;;;;;;5015849;28;11528;-71
2022/05/11 13:13:47;;;;;;;;;11.75;11.75;35.30;21.70;;;;;;5015777;28;11597;-71
2022/05/11 13:16:20;;;;;;;;;12.00;12.00;35.10;21.40;;;;;;5015465;28;11645;-71
2022/05/11 13:18:46;;;;;;;;;11.00;11.00;35.40;22.90;;;;;;5015766;28;11535;-71
2022/05/11 13:21:13;;;;;;;;;11.75;11.75;35.40;22.50;;;;;;5015468;28;11499;-71
2022/05/11 13:23:47;;;;;;;;;10.75;10.75;35.80;22.60;;;;;;5015102;28;12244;-72
2022/05/11 13:26:43;;;;;;;;;10.00;10.00;36.00;21.80;;;;;;5015160;28;11495;-71
2022/05/11 13:29:16;;;;;;;;;8.75;8.75;35.90;21.20;;;;;;5023295;28;11552;-72
2022/05/11 13:31:42;;;;;;;;;10.00;10.00;36.00;21.00;;;;;;5026819;28;11545;-73
2022/05/11 13:34:32;;;;;;;;;11.00;11.00;36.20;21.50;;;;;;5015734;28;11584;-72
2022/05/11 13:36:59;;;;;;;;;8.00;8.00;35.80;21.60;;;;;;5035065;28;11518;-76
2022/05/11 13:39:31;;;;;;;;;10.00;10.00;35.20;20.40;;;;;;5034030;28;11450;-77